Burlington, Illinois
Current Conditions -  °F | °C
As of 3:35 AM on Sunday 23 Nov 2014 (Local Time) from KDKB Reporting Station
Overcast Overcast  
Wind Chill: 40°   Ceiling: 500
Heat Index: 46°   Visibility: NA
Dew Point: 46°   Wind: 15mph
Humidity: 97%   Direction: 170°S
Pressure: 29.75"   Gusts: 18mph
Location:  42.05°N, 88.55°W
Report Text: KDKB 230935Z AUTO 17013G16KT OVC005 08/08 A2975 RMK AO2 T00800076 PWINO
Loading
Personal Weather Stations






























Interactive Weather Map New forecast layout! Learn more

10-Day Weather Forecast

Advertisements
Track Severe Weather on mobile